Time;durP1;ratioP1;P1;durP2;ratioP2;P2;SDS_P1;SDS_P2;PMS_P1;PMS_P2;Temp;Humidity;BMP_temperature;BMP_pressure;BME280_temperature;BME280_humidity;BME280_pressure;Samples;Min_cycle;Max_cycle;Signal;HPM_P1;HPM_P2
2022/08/05 00:01:48;;;;;;;6.40;2.72;;;;;;;25.99;100.00;101383.31;5096789;28;20036;-54
2022/08/05 00:04:13;;;;;;;9.75;2.80;;;;;;;25.96;100.00;101381.16;5091331;28;20066;-56
2022/08/05 00:06:39;;;;;;;13.13;3.25;;;;;;;25.89;100.00;101371.34;5095225;28;20495;-57
2022/08/05 00:09:04;;;;;;;11.68;3.35;;;;;;;25.80;100.00;101366.78;5095615;28;20033;-53
2022/08/05 00:11:30;;;;;;;11.80;3.15;;;;;;;25.72;100.00;101368.19;5102502;28;20028;-54
2022/08/05 00:13:56;;;;;;;11.52;3.08;;;;;;;25.61;100.00;101367.44;5094951;28;20031;-57
2022/08/05 00:16:22;;;;;;;7.57;2.83;;;;;;;25.60;100.00;101365.81;5096452;28;20043;-56
2022/08/05 00:18:48;;;;;;;9.00;2.30;;;;;;;25.55;100.00;101360.38;5099607;28;20077;-53
2022/08/05 00:21:16;;;;;;;9.83;3.03;;;;;;;25.54;100.00;101356.81;5091818;28;20032;-54
2022/08/05 00:23:43;;;;;;;9.40;2.37;;;;;;;25.52;100.00;101356.28;5099972;28;20032;-55
2022/08/05 00:26:09;;;;;;;11.37;2.47;;;;;;;25.55;100.00;101357.63;5090550;28;20020;-55
2022/08/05 00:28:35;;;;;;;11.73;3.10;;;;;;;25.51;100.00;101354.66;5094943;28;20040;-54
2022/08/05 00:31:02;;;;;;;11.30;2.90;;;;;;;25.54;100.00;101356.00;5096299;28;20032;-53
2022/08/05 00:33:27;;;;;;;12.40;3.50;;;;;;;25.42;100.00;101370.81;5097881;28;20036;-55
2022/08/05 00:35:53;;;;;;;12.60;2.63;;;;;;;25.42;100.00;101359.06;5097355;28;20067;-55
2022/08/05 00:38:19;;;;;;;7.50;2.10;;;;;;;25.44;100.00;101365.06;5093530;28;20039;-55
2022/08/05 00:40:53;;;;;;;10.57;2.75;;;;;;;25.24;100.00;101369.56;5093672;28;20056;-55
2022/08/05 00:43:19;;;;;;;10.97;2.63;;;;;;;25.25;100.00;101375.84;5085482;28;20044;-54
2022/08/05 00:45:46;;;;;;;9.05;2.75;;;;;;;25.25;100.00;101376.69;5091854;28;20040;-56
2022/08/05 00:48:21;;;;;;;11.77;3.30;;;;;;;25.19;100.00;101384.09;5092850;28;20064;-55
2022/08/05 00:50:48;;;;;;;4.97;2.10;;;;;;;25.27;100.00;101377.22;5090639;28;20096;-56
2022/08/05 00:53:16;;;;;;;8.83;2.30;;;;;;;25.22;100.00;101379.16;5089740;28;20097;-57
2022/08/05 00:55:42;;;;;;;25.47;2.60;;;;;;;25.15;100.00;101388.50;5088675;28;20028;-57
2022/08/05 00:58:08;;;;;;;;;;;;;;;25.23;100.00;101373.41;5092272;28;20070;-55
2022/08/05 01:00:34;;;;;;;8.52;2.38;;;;;;;25.29;100.00;101366.78;5083688;28;19951;-56
2022/08/05 01:02:59;;;;;;;8.27;2.50;;;;;;;25.22;100.00;101365.47;5089214;28;20037;-56
2022/08/05 01:05:25;;;;;;;13.07;2.72;;;;;;;25.12;100.00;101371.81;5086214;28;20025;-56
2022/08/05 01:07:51;;;;;;;8.33;2.83;;;;;;;25.13;100.00;101374.28;5091017;28;20033;-53
2022/08/05 01:10:21;;;;;;;12.27;2.70;;;;;;;25.16;100.00;101370.16;5072339;28;20047;-57
2022/08/05 01:12:52;;;;;;;12.13;2.87;;;;;;;25.02;100.00;101373.50;5093158;28;20150;-57
2022/08/05 01:15:23;;;;;;;10.77;2.97;;;;;;;25.02;100.00;101375.41;5084931;28;20033;-56
2022/08/05 01:17:59;;;;;;;11.93;2.53;;;;;;;24.92;100.00;101373.56;5088874;28;20028;-55
2022/08/05 01:20:57;;;;;;;14.03;2.60;;;;;;;24.94;100.00;101390.50;5086668;28;20036;-57
2022/08/05 01:23:49;;;;;;;9.37;2.33;;;;;;;25.09;100.00;101402.47;5085468;28;20056;-58
2022/08/05 01:26:43;;;;;;;5.97;2.20;;;;;;;25.11;100.00;101403.84;5086050;28;20028;-54
2022/08/05 01:29:25;;;;;;;9.57;2.50;;;;;;;25.04;100.00;101398.66;5085560;28;20039;-56
2022/08/05 01:31:53;;;;;;;8.53;2.87;;;;;;;24.97;100.00;101400.88;5087039;28;20056;-56
2022/08/05 01:34:24;;;;;;;11.93;3.23;;;;;;;25.00;100.00;101400.31;5089003;28;20024;-57
2022/08/05 01:36:56;;;;;;;9.77;3.10;;;;;;;25.02;100.00;101411.81;5092866;28;20048;-54
2022/08/05 01:39:24;;;;;;;9.97;2.50;;;;;;;25.06;100.00;101426.56;5088974;28;20041;-55
2022/08/05 01:41:53;;;;;;;9.97;2.73;;;;;;;25.00;100.00;101427.69;5086331;28;20083;-55
2022/08/05 01:44:19;;;;;;;11.13;2.77;;;;;;;25.06;100.00;101429.28;5092037;28;20056;-54
2022/08/05 01:46:45;;;;;;;6.03;2.23;;;;;;;24.98;100.00;101429.88;5095858;28;20028;-55
2022/08/05 01:49:16;;;;;;;9.87;3.10;;;;;;;25.00;100.00;101421.38;5091049;28;20029;-54
2022/08/05 01:51:42;;;;;;;10.63;2.90;;;;;;;24.96;100.00;101417.56;5089220;28;20045;-54
2022/08/05 01:54:09;;;;;;;9.73;2.92;;;;;;;24.94;100.00;101414.31;5093943;28;20029;-54
2022/08/05 01:56:40;;;;;;;8.40;2.37;;;;;;;24.92;100.00;101433.75;5097770;28;20036;-58
2022/08/05 01:59:10;;;;;;;14.13;2.40;;;;;;;24.88;100.00;101413.50;5090212;28;20024;-55
2022/08/05 02:01:37;;;;;;;10.53;3.43;;;;;;;24.95;100.00;101400.34;5097371;28;20092;-55
2022/08/05 02:04:03;;;;;;;;;;;;;;;24.84;100.00;101394.09;5096422;28;20029;-56
2022/08/05 02:06:30;;;;;;;11.75;3.65;;;;;;;24.75;100.00;101393.03;5098092;28;19920;-56
2022/08/05 02:08:56;;;;;;;18.35;3.53;;;;;;;24.68;100.00;101398.78;5093077;28;20041;-54
2022/08/05 02:11:22;;;;;;;9.33;2.17;;;;;;;24.66;100.00;101398.22;5090436;28;20063;-55
2022/08/05 02:13:59;;;;;;;9.57;3.42;;;;;;;24.71;100.00;101395.47;5094921;28;20036;-57
2022/08/05 02:16:33;;;;;;;9.87;3.00;;;;;;;24.68;100.00;101397.94;5088902;28;20067;-58
2022/08/05 02:19:04;;;;;;;7.47;2.90;;;;;;;24.58;100.00;101409.72;5089418;28;20033;-56
2022/08/05 02:21:34;;;;;;;12.00;2.67;;;;;;;24.58;100.00;101415.19;5088712;28;20029;-55
2022/08/05 02:24:06;;;;;;;9.17;2.60;;;;;;;24.57;100.00;101419.84;5090272;28;20037;-57
2022/08/05 02:26:40;;;;;;;13.63;2.70;;;;;;;24.61;100.00;101406.44;5090038;28;20051;-58
2022/08/05 02:29:09;;;;;;;7.57;2.30;;;;;;;24.59;100.00;101403.16;5090377;28;20032;-56
2022/08/05 02:31:35;;;;;;;10.03;3.33;;;;;;;24.26;100.00;101391.75;5093382;28;20047;-56
2022/08/05 02:34:05;;;;;;;11.10;2.33;;;;;;;24.34;100.00;101391.19;5093535;28;20028;-54
2022/08/05 02:36:34;;;;;;;13.07;3.07;;;;;;;24.37;100.00;101408.94;5091472;28;20037;-57
2022/08/05 02:39:02;;;;;;;10.43;2.47;;;;;;;24.43;100.00;101394.97;5087955;28;20024;-55
2022/08/05 02:41:30;;;;;;;7.03;1.93;;;;;;;24.42;100.00;101387.88;5093124;28;20054;-55
2022/08/05 02:43:57;;;;;;;5.47;2.03;;;;;;;24.37;100.00;101384.34;5093136;28;20036;-56
2022/08/05 02:46:27;;;;;;;9.27;2.73;;;;;;;24.31;100.00;101378.06;5091408;28;20136;-56
2022/08/05 02:48:54;;;;;;;9.30;2.20;;;;;;;24.36;100.00;101382.72;5088810;28;20036;-53
2022/08/05 02:51:20;;;;;;;8.63;2.80;;;;;;;24.18;100.00;101382.97;5089103;28;20036;-56
2022/08/05 02:53:46;;;;;;;9.23;2.70;;;;;;;24.17;100.00;101399.66;5091112;28;20055;-53
2022/08/05 02:56:13;;;;;;;9.67;2.67;;;;;;;24.10;100.00;101399.09;5093420;28;20044;-52
2022/08/05 02:58:40;;;;;;;8.40;2.35;;;;;;;24.13;100.00;101402.13;5099011;28;20104;-56
2022/08/05 03:01:08;;;;;;;13.87;3.30;;;;;;;24.09;100.00;101401.03;5090868;28;20033;-54
2022/08/05 03:03:39;;;;;;;7.10;2.40;;;;;;;23.91;100.00;101411.38;5096811;28;20115;-55
2022/08/05 03:06:06;;;;;;;9.17;2.60;;;;;;;24.05;100.00;101416.34;5094973;28;20028;-56
2022/08/05 03:08:32;;;;;;;10.63;2.37;;;;;;;24.06;100.00;101407.84;5100670;28;20043;-55
2022/08/05 03:10:58;;;;;;;;;;;;;;;24.08;100.00;101410.31;5095134;28;20039;-55
2022/08/05 03:13:23;;;;;;;6.13;2.00;;;;;;;24.07;100.00;101403.22;5092675;28;19943;-55
2022/08/05 03:15:49;;;;;;;8.52;2.30;;;;;;;23.96;100.00;101409.72;5093019;28;20036;-57
2022/08/05 03:18:14;;;;;;;8.40;2.22;;;;;;;23.91;100.00;101405.91;5093675;28;20028;-57
2022/08/05 03:20:40;;;;;;;12.57;3.20;;;;;;;23.96;100.00;101401.53;5094183;28;20047;-57
2022/08/05 03:23:07;;;;;;;;;;;;;;;23.82;100.00;101395.78;5089784;28;20047;-56
2022/08/05 03:25:37;;;;;;;7.75;2.30;;;;;;;23.78;100.00;101384.63;5097660;28;19908;-53
2022/08/05 03:28:05;;;;;;;9.03;2.57;;;;;;;23.67;100.00;101383.78;5102949;28;20104;-56
2022/08/05 03:30:32;;;;;;;10.00;2.50;;;;;;;23.68;100.00;101392.78;5100194;28;20036;-50
2022/08/05 03:32:58;;;;;;;;;;;;;;;23.74;100.00;101400.72;5105221;28;20039;-52
2022/08/05 03:35:24;;;;;;;10.57;2.90;;;;;;;23.72;100.00;101399.31;5102233;28;19947;-58
2022/08/05 03:37:50;;;;;;;;;;;;;;;23.72;100.00;101400.16;5096675;28;20049;-55
2022/08/05 03:40:15;;;;;;;8.43;2.00;;;;;;;23.77;100.00;101402.09;5100440;28;20011;-58
2022/08/05 03:42:41;;;;;;;6.45;2.50;;;;;;;23.73;100.00;101409.16;5096326;28;20087;-55
2022/08/05 03:45:07;;;;;;;7.47;2.25;;;;;;;23.81;100.00;101405.91;5098402;28;20063;-52
2022/08/05 03:47:33;;;;;;;6.83;2.00;;;;;;;23.79;100.00;101424.47;5091645;28;20028;-56
2022/08/05 03:49:59;;;;;;;5.97;2.28;;;;;;;23.80;100.00;101422.56;5102299;28;20051;-57
2022/08/05 03:52:32;;;;;;;9.00;2.13;;;;;;;23.86;100.00;101414.09;5101054;28;20039;-55
2022/08/05 03:55:12;;;;;;;9.03;2.50;;;;;;;23.81;100.00;101416.84;5100279;28;20028;-55
2022/08/05 03:57:39;;;;;;;14.03;2.90;;;;;;;23.84;100.00;101407.25;5105306;28;20087;-54
2022/08/05 04:00:09;;;;;;;7.40;2.30;;;;;;;23.79;100.00;101397.19;5099065;28;20032;-57
2022/08/05 04:02:41;;;;;;;9.03;2.60;;;;;;;23.78;100.00;101403.72;5095330;28;20032;-54
2022/08/05 04:05:08;;;;;;;8.20;2.40;;;;;;;23.69;100.00;101397.16;5093193;28;20025;-55
2022/08/05 04:07:35;;;;;;;9.00;2.97;;;;;;;23.68;100.00;101390.03;5075433;28;20108;-56
2022/08/05 04:10:01;;;;;;;7.00;2.90;;;;;;;23.57;100.00;101395.50;5093755;28;20033;-55
2022/08/05 04:12:27;;;;;;;4.10;1.95;;;;;;;23.46;100.00;101389.19;5095468;28;20035;-56
2022/08/05 04:14:54;;;;;;;9.70;3.37;;;;;;;23.32;100.00;101397.09;5097557;28;20032;-56
2022/08/05 04:17:20;;;;;;;8.75;3.03;;;;;;;23.23;100.00;101395.91;5095628;28;20036;-55
2022/08/05 04:19:47;;;;;;;8.87;2.93;;;;;;;23.06;100.00;101404.31;5095167;28;20044;-55
2022/08/05 04:22:13;;;;;;;9.20;2.87;;;;;;;23.22;100.00;101393.47;5101034;28;20032;-58
2022/08/05 04:24:41;;;;;;;6.17;2.30;;;;;;;23.19;100.00;101397.53;5093592;28;20039;-58
2022/08/05 04:27:06;;;;;;;9.57;2.80;;;;;;;23.13;100.00;101404.06;5095007;28;20032;-57
2022/08/05 04:29:32;;;;;;;4.80;2.17;;;;;;;23.25;100.00;101409.28;5098880;28;20067;-58
2022/08/05 04:31:57;;;;;;;10.93;2.65;;;;;;;23.05;100.00;101411.66;5095403;28;20041;-57
2022/08/05 04:34:23;;;;;;;5.20;2.13;;;;;;;23.15;100.00;101410.88;5090781;28;20036;-55
2022/08/05 04:36:49;;;;;;;7.65;2.45;;;;;;;23.20;100.00;101410.09;5095343;28;20040;-56
2022/08/05 04:39:14;;;;;;;14.10;2.80;;;;;;;23.25;100.00;101415.59;5093119;28;20096;-57
2022/08/05 04:41:40;;;;;;;6.85;2.25;;;;;;;23.11;100.00;101408.97;5093899;28;20056;-53
2022/08/05 04:44:05;;;;;;;14.68;3.50;;;;;;;23.26;100.00;101406.31;5099397;28;20044;-57
2022/08/05 04:46:31;;;;;;;10.00;2.45;;;;;;;23.41;100.00;101418.38;5097188;28;20039;-57
2022/08/05 04:48:57;;;;;;;6.03;2.28;;;;;;;22.98;100.00;101416.53;5093369;28;20107;-58
2022/08/05 04:51:22;;;;;;;;;;;;;;;23.28;100.00;101417.78;5092370;28;20020;-54
2022/08/05 04:53:48;;;;;;;5.47;2.13;;;;;;;23.53;100.00;101416.25;5097482;28;19966;-55
2022/08/05 04:56:13;;;;;;;8.15;2.45;;;;;;;23.55;100.00;101411.34;5079349;28;20099;-57
2022/08/05 04:58:39;;;;;;;9.48;3.20;;;;;;;23.55;100.00;101415.97;5092370;28;20040;-56
2022/08/05 05:01:05;;;;;;;;;;;;;;;23.01;100.00;101426.91;5092710;28;20052;-52
2022/08/05 05:03:31;;;;;;;6.97;2.50;;;;;;;22.99;100.00;101434.53;5085084;28;19936;-57
2022/08/05 05:05:56;;;;;;;12.00;3.10;;;;;;;23.00;100.00;101429.94;5083589;28;20044;-57
2022/08/05 05:08:22;;;;;;;7.60;3.15;;;;;;;22.96;100.00;101428.81;5081985;28;20105;-57
2022/08/05 05:10:48;;;;;;;10.00;2.92;;;;;;;23.00;100.00;101429.94;5084618;28;20024;-55
2022/08/05 05:13:16;;;;;;;8.00;2.85;;;;;;;23.00;100.00;101429.94;5091670;28;20039;-57
2022/08/05 05:15:42;;;;;;;13.53;3.13;;;;;;;23.40;100.00;101431.19;5094530;28;20115;-56
2022/08/05 05:18:11;;;;;;;9.60;3.00;;;;;;;23.00;100.00;101435.38;5093528;28;20039;-57
2022/08/05 05:20:36;;;;;;;17.50;5.43;;;;;;;22.99;100.00;101431.00;5096457;28;20024;-56
2022/08/05 05:23:05;;;;;;;16.75;6.18;;;;;;;23.10;100.00;101429.16;5095679;28;20067;-58
2022/08/05 05:25:31;;;;;;;10.27;3.47;;;;;;;23.32;100.00;101426.25;5091251;28;20070;-56
2022/08/05 05:27:56;;;;;;;9.48;4.05;;;;;;;22.92;100.00;101436.69;5089193;28;20037;-57
2022/08/05 05:30:22;;;;;;;15.05;3.80;;;;;;;22.81;100.00;101438.56;5093740;28;20043;-56
2022/08/05 05:32:48;;;;;;;8.18;3.97;;;;;;;22.87;100.00;101436.69;5096774;28;20051;-54
2022/08/05 05:35:13;;;;;;;40.03;20.63;;;;;;;22.87;100.00;101436.69;5098005;28;20025;-56
2022/08/05 05:37:47;;;;;;;;;;;;;;;22.59;100.00;101431.31;5095201;28;20032;-57
2022/08/05 05:40:20;;;;;;;102.90;52.03;;;;;;;22.77;100.00;101438.25;5087925;28;19909;-61
2022/08/05 05:42:46;;;;;;;51.30;25.60;;;;;;;22.91;100.00;101441.31;5090385;28;20056;-56
2022/08/05 05:45:12;;;;;;;18.40;8.27;;;;;;;22.93;100.00;101449.25;5072058;28;20036;-56
2022/08/05 05:47:39;;;;;;;13.25;3.42;;;;;;;22.90;100.00;101447.06;5088591;28;20075;-57
2022/08/05 05:50:11;;;;;;;10.57;4.57;;;;;;;22.95;100.00;101446.25;5094719;28;20058;-56
2022/08/05 05:52:37;;;;;;;10.63;3.70;;;;;;;23.05;100.00;101449.84;5088204;28;20059;-56
2022/08/05 05:55:07;;;;;;;13.70;3.75;;;;;;;23.34;100.00;101452.19;5086073;28;20040;-56
2022/08/05 05:57:32;;;;;;;9.60;3.10;;;;;;;23.52;100.00;101458.25;5088695;28;20043;-58
2022/08/05 05:59:58;;;;;;;7.22;2.60;;;;;;;23.87;100.00;101464.06;5089061;28;20029;-58
2022/08/05 06:02:24;;;;;;;6.65;3.25;;;;;;;24.00;100.00;101468.22;5087307;28;20029;-54
2022/08/05 06:04:49;;;;;;;7.88;2.50;;;;;;;23.97;100.00;101474.19;5095006;28;20137;-54
2022/08/05 06:07:15;;;;;;;56.65;25.58;;;;;;;24.01;100.00;101467.13;5090643;28;20041;-56
2022/08/05 06:09:41;;;;;;;22.48;10.73;;;;;;;24.04;100.00;101474.78;5087413;28;20038;-55
2022/08/05 06:12:07;;;;;;;13.30;3.97;;;;;;;23.97;100.00;101474.19;5085631;28;20041;-56
2022/08/05 06:14:32;;;;;;;;;;;;;;;24.09;100.00;101474.78;5089790;28;20095;-57
2022/08/05 06:16:59;;;;;;;19.73;8.63;;;;;;;24.15;100.00;101476.44;5087475;28;19912;-59
2022/08/05 06:19:25;;;;;;;8.37;3.90;;;;;;;24.15;100.00;101470.97;5085792;28;20048;-57
2022/08/05 06:21:51;;;;;;;5.07;2.80;;;;;;;24.15;100.00;101479.16;5087557;28;20040;-55
2022/08/05 06:24:16;;;;;;;6.32;2.78;;;;;;;24.18;100.00;101480.53;5086419;28;20040;-55
2022/08/05 06:26:42;;;;;;;7.93;2.65;;;;;;;24.26;100.00;101477.25;5087642;28;20092;-59
2022/08/05 06:29:08;;;;;;;;;;;;;;;24.34;100.00;101484.09;5071305;28;20037;-56
2022/08/05 06:31:34;;;;;;;6.90;2.83;;;;;;;24.26;100.00;101485.47;5093844;28;19952;-55
2022/08/05 06:33:59;;;;;;;6.20;2.30;;;;;;;24.40;100.00;101488.47;5094347;28;21236;-56
2022/08/05 06:36:25;;;;;;;10.02;3.38;;;;;;;24.50;100.00;101487.63;5100964;28;20036;-56
2022/08/05 06:38:53;;;;;;;14.10;5.35;;;;;;;24.66;100.00;101485.72;5102675;28;20103;-58
2022/08/05 06:41:19;;;;;;;8.13;2.97;;;;;;;24.71;100.00;101490.34;5092685;28;20041;-56
2022/08/05 06:43:46;;;;;;;14.13;6.60;;;;;;;24.79;100.00;101481.63;5094943;28;20028;-52
2022/08/05 06:46:12;;;;;;;11.30;2.50;;;;;;;24.44;100.00;101486.81;5096389;28;20035;-55
2022/08/05 06:48:37;;;;;;;7.80;3.08;;;;;;;24.48;100.00;101492.56;5097658;28;20086;-56
2022/08/05 06:51:04;;;;;;;6.78;2.55;;;;;;;24.74;100.00;101496.09;5095298;28;20087;-57
2022/08/05 06:53:30;;;;;;;8.37;1.93;;;;;;;24.68;100.00;101494.47;5081687;28;20037;-58
2022/08/05 06:55:59;;;;;;;5.90;2.23;;;;;;;24.75;100.00;101494.22;5098850;28;20057;-59
2022/08/05 06:58:25;;;;;;;9.53;2.57;;;;;;;24.88;100.00;101499.13;5096886;28;20024;-55
2022/08/05 07:00:51;;;;;;;7.23;2.10;;;;;;;24.89;100.00;101494.44;5094273;28;20043;-57
2022/08/05 07:03:17;;;;;;;8.02;2.50;;;;;;;24.56;100.00;101494.75;5092365;28;20036;-56
2022/08/05 07:05:43;;;;;;;10.27;3.30;;;;;;;24.18;100.00;101496.94;5095450;28;20029;-55
2022/08/05 07:08:08;;;;;;;;;;;;;;;24.96;100.00;101505.13;5075202;28;20037;-57
2022/08/05 07:10:34;;;;;;;10.17;2.73;;;;;;;25.18;100.00;101513.00;5096918;28;19923;-56
2022/08/05 07:18:27;;;;;;;5.80;1.83;;;;;;;25.46;100.00;101517.00;5093160;28;20046;-57
2022/08/05 07:20:53;;;;;;;7.78;1.88;;;;;;;25.49;100.00;101532.09;5093070;28;20032;-56
2022/08/05 07:23:19;;;;;;;5.57;2.17;;;;;;;25.73;100.00;101534.16;5092156;28;20065;-57
2022/08/05 07:25:44;;;;;;;6.40;2.00;;;;;;;25.66;100.00;101542.69;5095837;28;20051;-54
2022/08/05 07:28:10;;;;;;;7.40;1.80;;;;;;;25.84;100.00;101557.69;5097362;28;20024;-56
2022/08/05 07:30:36;;;;;;;;;;;;;;;25.87;100.00;101557.13;5092905;28;20083;-56
2022/08/05 07:33:03;;;;;;;3.43;1.50;;;;;;;25.65;100.00;101549.25;5090412;28;19935;-57
2022/08/05 07:35:28;;;;;;;3.30;1.47;;;;;;;25.71;100.00;101550.06;5093013;28;20035;-57
2022/08/05 07:37:54;;;;;;;8.70;2.35;;;;;;;25.78;100.00;101553.31;5094760;28;20039;-57
2022/08/05 07:40:20;;;;;;;;;;;;;;;25.65;100.00;101557.47;5089655;28;20025;-55
2022/08/05 07:42:46;;;;;;;14.23;7.47;;;;;;;25.68;100.00;101561.59;5084775;28;19939;-58
2022/08/05 07:45:12;;;;;;;9.30;4.73;;;;;;;25.90;100.00;101561.19;5075919;28;20029;-58
2022/08/05 07:47:38;;;;;;;35.50;22.67;;;;;;;26.03;100.00;101563.31;5076970;28;20029;-56
2022/08/05 07:50:04;;;;;;;;;;;;;;;26.09;100.00;101561.38;5083796;28;20056;-56
2022/08/05 07:52:29;;;;;;;10.63;3.13;;;;;;;26.31;100.00;101563.72;5077454;28;19944;-56
2022/08/05 07:54:55;;;;;;;;;;;;;;;26.56;100.00;101564.63;5083940;28;20034;-56
2022/08/05 07:57:20;;;;;;;4.00;2.00;;;;;;;26.66;100.00;101569.19;5081197;28;19913;-58
2022/08/05 07:59:46;;;;;;;;;;;;;;;26.75;100.00;101564.72;5083311;28;20038;-56
2022/08/05 08:02:11;;;;;;;3.93;1.43;;;;;;;26.50;100.00;101571.25;5078390;28;19912;-56
2022/08/05 08:04:37;;;;;;;;;;;;;;;26.15;100.00;101568.44;5083669;28;20043;-57
2022/08/05 08:07:02;;;;;;;3.87;1.40;;;;;;;26.34;100.00;101573.31;5082963;28;19966;-55
2022/08/05 08:09:28;;;;;;;;;;;;;;;26.28;100.00;101577.16;5084841;28;20061;-54
2022/08/05 08:11:53;;;;;;;5.87;2.07;;;;;;;26.11;100.00;101578.34;5082236;28;19912;-55
2022/08/05 08:14:19;;;;;;;;;;;;;;;26.10;100.00;101582.19;5066062;28;20044;-55
2022/08/05 08:16:44;;;;;;;7.20;1.67;;;;;;;25.77;100.00;101592.75;5087640;28;19918;-53
2022/08/05 08:19:10;;;;;;;;;;;;;;;25.54;100.00;101592.28;5086716;28;20032;-54
2022/08/05 08:21:35;;;;;;;2.47;1.20;;;;;;;25.83;100.00;101586.16;5085431;28;19913;-55
2022/08/05 08:24:01;;;;;;;4.32;1.27;;;;;;;25.86;100.00;101591.09;5067297;28;20048;-56
2022/08/05 08:26:27;;;;;;;2.92;1.23;;;;;;;25.72;100.00;101592.78;5084097;28;20103;-57
2022/08/05 08:28:52;;;;;;;;;;;;;;;25.82;100.00;101597.41;5067756;28;20043;-56
2022/08/05 08:31:17;;;;;;;3.47;0.80;;;;;;;25.98;100.00;101590.75;5068932;28;19920;-55
2022/08/05 08:33:43;;;;;;;4.07;1.25;;;;;;;26.22;100.00;101592.84;5085510;28;20416;-53
2022/08/05 08:36:09;;;;;;;;;;;;;;;26.09;100.00;101602.47;5086011;28;20029;-57
2022/08/05 08:38:34;;;;;;;4.53;0.97;;;;;;;26.18;100.00;101600.81;5090002;28;19939;-56
2022/08/05 08:41:03;;;;;;;;;;;;;;;26.04;100.00;101599.75;5084709;28;20032;-57
2022/08/05 08:43:31;;;;;;;5.30;1.23;;;;;;;26.20;100.00;101608.75;5098078;28;19971;-58
2022/08/05 08:46:00;;;;;;;2.30;1.07;;;;;;;26.49;100.00;101611.56;5096083;28;20058;-58
2022/08/05 08:48:27;;;;;;;2.57;0.93;;;;;;;26.74;100.00;101615.22;5082136;28;20035;-57
2022/08/05 08:50:52;;;;;;;3.30;1.07;;;;;;;27.19;100.00;101622.53;5097521;28;20043;-58
2022/08/05 08:53:18;;;;;;;;;;;;;;;27.44;100.00;101620.63;5095417;28;20092;-57
2022/08/05 08:55:44;;;;;;;1.87;0.90;;;;;;;27.68;100.00;101628.06;5097080;28;19920;-58
2022/08/05 08:58:09;;;;;;;;;;;;;;;28.21;100.00;101623.59;5097571;28;20074;-58
2022/08/05 09:00:35;;;;;;;1.80;0.80;;;;;;;28.03;100.00;101635.09;5097260;28;19912;-56
2022/08/05 09:03:03;;;;;;;;;;;;;;;27.30;100.00;101632.31;5096923;28;20040;-54
2022/08/05 09:05:29;;;;;;;3.23;1.43;;;;;;;27.61;100.00;101626.50;5101138;28;20749;-58
2022/08/05 09:07:54;;;;;;;;;;;;;;;27.98;100.00;101637.06;5095809;28;20032;-58
2022/08/05 09:10:20;;;;;;;1.02;0.55;;;;;;;28.13;91.20;101639.59;5101022;28;19939;-56
2022/08/05 09:12:46;;;;;;;;;;;;;;;27.95;84.20;101648.66;5096566;28;20055;-58
2022/08/05 09:15:12;;;;;;;1.40;0.80;;;;;;;27.91;96.39;101641.00;5095847;28;19905;-56
2022/08/05 09:17:38;;;;;;;1.90;1.10;;;;;;;27.94;100.00;101644.28;5097255;28;20032;-55
2022/08/05 09:20:05;;;;;;;2.43;1.13;;;;;;;27.97;100.00;101646.44;5091508;28;20028;-58
2022/08/05 09:23:10;;;;;;;0.80;0.50;;;;;;;27.58;82.03;101656.50;5092909;28;20032;-56
2022/08/05 09:25:39;;;;;;;1.53;0.70;;;;;;;27.60;79.67;101651.53;5090633;28;20098;-56
2022/08/05 09:28:23;;;;;;;2.93;0.50;;;;;;;27.44;72.77;101650.84;5093204;28;20088;-54
2022/08/05 09:30:54;;;;;;;2.30;1.13;;;;;;;27.96;100.00;101650.28;5093184;28;20059;-57
2022/08/05 09:33:20;;;;;;;2.03;0.80;;;;;;;28.37;100.00;101660.75;5098878;28;20078;-56
2022/08/05 09:36:02;;;;;;;1.90;1.10;;;;;;;28.80;84.26;101670.03;5092056;28;20028;-57
2022/08/05 09:38:29;;;;;;;2.78;0.80;;;;;;;29.70;70.06;101669.84;5089492;28;20064;-57
2022/08/05 09:41:14;;;;;;;1.08;0.40;;;;;;;30.13;66.10;101685.25;5089578;28;20036;-59
2022/08/05 09:43:40;;;;;;;1.75;0.57;;;;;;;30.60;59.33;101685.03;5100757;28;20048;-57
2022/08/05 09:46:10;;;;;;;0.70;0.50;;;;;;;30.79;62.88;101694.31;5093239;28;20044;-58
2022/08/05 09:48:37;;;;;;;1.35;0.63;;;;;;;30.68;69.82;101688.22;5099039;28;20028;-58
2022/08/05 09:51:04;;;;;;;6.88;1.10;;;;;;;30.94;67.17;101687.56;5079101;28;20119;-56
2022/08/05 09:53:46;;;;;;;2.45;0.85;;;;;;;31.53;67.87;101692.16;5100494;28;20050;-58
2022/08/05 09:56:12;;;;;;;3.38;0.65;;;;;;;31.52;60.29;101696.88;5097237;28;20055;-58
2022/08/05 09:58:37;;;;;;;23.63;15.43;;;;;;;31.88;63.03;101695.91;5094031;28;20029;-59
2022/08/05 10:01:06;;;;;;;55.28;34.72;;;;;;;32.39;73.08;101697.44;5093659;28;20050;-59
2022/08/05 10:03:32;;;;;;;24.58;15.27;;;;;;;31.63;67.82;101696.59;5092333;28;20032;-61
2022/08/05 10:06:09;;;;;;;8.43;5.05;;;;;;;31.03;66.56;101708.59;5091354;28;20040;-56
2022/08/05 10:08:37;;;;;;;11.75;6.63;;;;;;;30.63;72.19;101702.94;5092456;28;20032;-57
2022/08/05 10:11:11;;;;;;;5.50;2.92;;;;;;;30.51;63.84;101705.41;5092244;28;22509;-57
2022/08/05 10:13:38;;;;;;;5.35;2.95;;;;;;;30.31;77.60;101708.31;5091513;28;20020;-58
2022/08/05 10:16:05;;;;;;;4.32;1.90;;;;;;;30.50;85.02;101714.81;5091082;28;20029;-61
2022/08/05 10:18:32;;;;;;;8.65;2.75;;;;;;;30.71;80.53;101707.72;5093397;28;20044;-59
2022/08/05 10:21:05;;;;;;;4.90;2.58;;;;;;;30.39;84.11;101717.78;5098754;28;20036;-59
2022/08/05 10:23:36;;;;;;;11.25;6.78;;;;;;;30.05;64.70;101717.13;5091862;28;20048;-62
2022/08/05 10:26:05;;;;;;;6.95;1.70;;;;;;;30.02;61.71;101716.94;5089805;28;20048;-63
2022/08/05 10:28:32;;;;;;;7.55;1.25;;;;;;;30.19;59.62;101714.34;5087624;28;20029;-59
2022/08/05 10:30:59;;;;;;;2.90;1.83;;;;;;;30.58;79.28;101711.31;5098418;28;20096;-58
2022/08/05 10:33:27;;;;;;;9.85;1.65;;;;;;;31.63;68.08;101713.19;5091414;28;20032;-58
2022/08/05 10:35:53;;;;;;;3.40;1.30;;;;;;;32.22;68.78;101723.13;5088206;28;20028;-60
2022/08/05 10:38:21;;;;;;;4.50;2.50;;;;;;;33.40;62.57;101728.78;5089258;28;20067;-57
2022/08/05 10:40:50;;;;;;;2.45;1.50;;;;;;;34.93;52.82;101741.13;5082390;28;20036;-59
2022/08/05 10:43:40;;;;;;;1.33;0.43;;;;;;;34.13;40.94;101747.28;5084668;28;20119;-59
2022/08/05 10:46:08;;;;;;;2.85;0.93;;;;;;;33.63;53.22;101739.66;5087433;28;20071;-58
2022/08/05 10:48:41;;;;;;;3.53;0.70;;;;;;;31.83;53.66;101734.75;5081201;28;20103;-59
2022/08/05 10:51:13;;;;;;;4.47;0.93;;;;;;;31.26;69.06;101741.75;5084096;28;20025;-59
2022/08/05 10:53:59;;;;;;;4.45;0.90;;;;;;;30.84;65.47;101752.16;5083976;28;20096;-59
2022/08/05 10:56:27;;;;;;;3.50;1.20;;;;;;;30.73;68.15;101757.09;5083716;28;20036;-58
2022/08/05 10:58:52;;;;;;;3.92;1.33;;;;;;;30.26;76.92;101757.28;5083825;28;20041;-57
2022/08/05 11:01:32;;;;;;;1.90;1.00;;;;;;;29.16;61.33;101760.31;5088694;28;20048;-57
2022/08/05 11:04:08;;;;;;;10.23;4.93;;;;;;;29.45;53.98;101762.06;5085284;28;20033;-58
2022/08/05 11:06:54;;;;;;;48.58;28.77;;;;;;;29.74;69.44;101755.47;5085217;28;20037;-58
2022/08/05 11:09:21;;;;;;;10.85;5.07;;;;;;;29.61;61.67;101762.59;5064675;28;20104;-60
2022/08/05 11:11:51;;;;;;;8.93;3.97;;;;;;;29.84;66.42;101771.84;5085338;28;20040;-57
2022/08/05 11:14:28;;;;;;;10.23;4.15;;;;;;;30.25;78.71;101766.69;5082566;28;20089;-59
2022/08/05 11:17:25;;;;;;;2.33;1.05;;;;;;;30.53;46.34;101783.97;5083650;28;20037;-60
2022/08/05 11:19:56;;;;;;;4.18;2.10;;;;;;;31.64;58.01;101778.38;5082949;28;20056;-59
2022/08/05 11:22:50;;;;;;;3.22;1.65;;;;;;;31.53;61.86;101794.44;5085397;28;20036;-58
2022/08/05 11:25:31;;;;;;;45.40;22.92;;;;;;;31.28;66.25;101793.94;5092582;28;20040;-60
2022/08/05 11:28:16;;;;;;;89.63;56.65;;;;;;;31.47;57.81;101797.31;5090880;28;20040;-56
2022/08/05 11:30:54;;;;;;;5.25;2.72;;;;;;;31.21;55.95;101799.91;5091400;28;20044;-56
2022/08/05 11:33:31;;;;;;;3.55;1.48;;;;;;;30.62;54.80;101800.66;5090820;28;20040;-58